Flight Track Log - Related Links

Times and Time Zones

All times are in EDT time to prevent confusion due to time zone crossing. See the SKW6528 flight status page for this flight to view local times or setup timezone preferences in your user account.

Time Position Orientation Groundspeed Altitude Reporting Facility
EDT Latitude Longitude Course Direction KTS km/h feet Rate Location/Type
Wed 09:12:49 35.4742 -119.1656 131° Southeast 258 478 3.700  Level Los Angeles Center
Wed 09:13:50 35.4025 -119.1775 188° South 301 557 6.200 2.479 Climbing Los Angeles Center
Wed 09:14:00 35.0618 -118.6193 136° Southeast  Level FlightAware Approximate
Wed 09:14:50 35.3506 -119.1078 132° Southeast 285 528 8.700  Level Los Angeles Center
Wed 09:15:00 34.9724 -118.5058 141° Southeast  Level FlightAware Approximate
Wed 09:15:51 35.3003 -119.0333 130° Southeast 283 525 10.400  Level Los Angeles Center
Wed 09:16:00 34.8846 -118.3906 132° Southeast  Level FlightAware Approximate
Wed 09:16:52 35.2408 -118.9472 130° Southeast 321 594 11.900  Level Los Angeles Center
Wed 09:17:00 34.7946 -118.2779 141° Southeast  Level FlightAware Approximate
Wed 09:17:53 35.1806 -118.8586 130° Southeast 334 618 13.400  Level Los Angeles Center
Wed 09:18:00 34.7073 -118.1620 131° Southeast  Level FlightAware Approximate
Wed 09:18:54 35.1264 -118.7319 118° Southeast 369 684 15.000  Level Los Angeles Center
Wed 09:19:55 35.1164 -118.6047 95° East 377 698 16.200 1.180 Climbing Los Angeles Center
Wed 09:20:56 35.1094 -118.4853 94° East 386 715 17.400 1.180 Climbing Los Angeles Center
Wed 09:21:57 35.0992 -118.3531 95° East 392 726 18.600 1.180 Climbing Los Angeles Center
Wed 09:22:58 35.0903 -118.2194 95° East 395 732 19.800 1.131 Climbing Los Angeles Center
Wed 09:23:59 35.0806 -118.0858 95° East 397 735 20.900 1.033 Climbing Los Angeles Center
Wed 09:25:00 35.0767 -117.9497 92° East 407 753 21.900 984 Climbing Los Angeles Center
Wed 09:26:01 35.1233 -117.8225 66° East 408 756 22.900 984 Climbing Los Angeles Center
Wed 09:27:02 35.1725 -117.6908 65° Northeast 416 771 23.900 836 Climbing Los Angeles Center
Wed 09:28:03 35.2233 -117.5544 65° Northeast 424 785 24.600 639 Climbing Los Angeles Center
Wed 09:29:04 35.2731 -117.4186 66° East 429 795 25.200 541 Climbing Los Angeles Center
Wed 09:30:05 35.3225 -117.2817 66° East 434 803 25.700 541 Climbing Los Angeles Center
Wed 09:31:06 35.3847 -117.1133 66° East 443 821 26.300 541 Climbing Los Angeles Center
Wed 09:32:07 35.4364 -116.9714 66° East 450 834 26.800 489 Climbing Los Angeles Center
Wed 09:33:21 35.4997 -116.7986 66° East 458 848 27.400 533 Climbing Los Angeles Center
Wed 09:34:22 35.5522 -116.6542 66° East 462 856 28.000 541 Climbing Los Angeles Center
Wed 09:35:23 35.6033 -116.5083 67° East 464 859 28.500 488 Climbing Los Angeles Center
Wed 09:36:25 35.6553 -116.3631 66° East 463 858 29.000 488 Climbing Los Angeles Center
Wed 09:37:26 35.7083 -116.2175 66° East 466 863 29.500 492 Climbing Los Angeles Center
Wed 09:38:27 35.7603 -116.0708 66° East 468 867 30.000 492 Climbing Los Angeles Center
Wed 09:39:28 35.8128 -115.9247 66° East 466 863 30.500 537 Climbing Los Angeles Center
Wed 09:40:30 35.8731 -115.7575 66° East 461 855 31.100 537 Climbing Los Angeles Center
Wed 09:41:31 35.9247 -115.6100 67° East 467 864 31.600 492 Climbing Los Angeles Center
Wed 09:42:32 35.9750 -115.4633 67° East 469 869 32.100 488 Climbing Los Angeles Center
Wed 09:43:34 36.0253 -115.3181 67° East 467 864 32.600 439 Climbing Los Angeles Center
Wed 09:44:35 36.0753 -115.1728 67° East 464 859 33.000 195 Climbing Los Angeles Center
Wed 09:45:37 36.1311 -114.9928 69° East 470 871 33.000  Level Los Angeles Center
Wed 09:46:38 36.1781 -114.8408 69° East 474 877 33.000  Level Los Angeles Center
Wed 09:47:39 36.2253 -114.6842 69° East 484 896 33.000  Level Los Angeles Center
Wed 09:48:41 36.2739 -114.5269 69° East 489 906 33.000  Level Los Angeles Center
Wed 09:49:42 36.3222 -114.3672 69° East 494 914 33.000  Level Los Angeles Center
Wed 09:50:44 36.3700 -114.2094 69° East 491 909 33.000  Level Los Angeles Center
Wed 09:51:45 36.4169 -114.0514 70° East 489 906 33.000  Level Los Angeles Center
Wed 09:52:47 36.4708 -113.8969 67° East 487 901 33.000  Level Los Angeles Center
Wed 09:53:48 36.5328 -113.7206 66° East 486 900 33.000  Level Los Angeles Center
Wed 09:54:49 36.5869 -113.5658 66° East 489 906 33.000  Level Los Angeles Center
Wed 09:55:51 36.6394 -113.4111 67° East 488 904 33.000  Level Los Angeles Center
Wed 09:56:52 36.6928 -113.2556 67° East 489 906 33.000  Level Los Angeles Center
Wed 09:57:54 36.7456 -113.1003 67° East 489 906 33.000  Level Los Angeles Center
Wed 09:58:55 36.7983 -112.9442 67° East 491 909 33.000  Level Los Angeles Center
Wed 09:59:57 36.8631 -112.7569 67° East 492 911 33.000  Level Los Angeles Center
Wed 10:00:58 36.9147 -112.5994 68° East 494 914 33.000  Level Los Angeles Center
Wed 10:02:00 36.9681 -112.4411 67° East 497 921 33.000  Level Los Angeles Center
Wed 10:03:02 37.0203 -112.2817 68° East 498 922 33.000  Level Los Angeles Center
Wed 10:04:03 37.0736 -112.1222 67° East 500 925 33.000  Level Los Angeles Center
Wed 10:05:05 37.1256 -111.9617 68° East 501 929 33.000  Level Los Angeles Center
Wed 10:06:06 37.1897 -111.7681 67° East 503 932 33.000  Level Los Angeles Center
Wed 10:07:08 37.2419 -111.6058 68° East 504 933 33.000  Level Los Angeles Center
Wed 10:08:10 37.2947 -111.4431 68° East 505 935 33.000  Level Los Angeles Center
Wed 10:09:11 37.3481 -111.2797 68° East 506 937 33.000  Level Los Angeles Center
Wed 10:10:19 37.4103 -111.0836 68° East 509 943 33.000  Level Denver Center
Wed 10:11:21 37.4614 -110.9197 69° East 507 938 33.000  Level Denver Center
Wed 10:12:22 37.5144 -110.7533 68° East 512 948 33.000  Level Denver Center
Wed 10:13:24 37.5669 -110.5867 68° East 515 954 33.000  Level Denver Center
Wed 10:14:25 37.6261 -110.3950 69° East 512 948 33.000  Level Denver Center
Wed 10:15:27 37.6769 -110.2333 68° East 516 956 33.000  Level Denver Center
Wed 10:16:28 37.7253 -110.0711 69° East 516 956 33.000  Level Denver Center
Wed 10:17:30 37.7842 -109.8797 69° East 522 967 33.000  Level Denver Center
Wed 10:18:31 37.8339 -109.7167 69° East 520 962 33.000  Level Denver Center
Wed 10:19:33 37.8922 -109.5264 69° East 519 961 33.000  Level Denver Center
Wed 10:20:35 37.9417 -109.3600 69° East 525 972 33.000  Level Denver Center
Wed 10:21:36 37.9906 -109.1944 69° East 524 970 33.000  Level Denver Center
Wed 10:22:38 38.0481 -108.9997 69° East 526 974 33.000  Level Denver Center
Wed 10:23:40 38.0969 -108.8289 70° East 531 983 33.000  Level Denver Center
Wed 10:24:41 38.1547 -108.6319 69° East 531 983 33.000  Level Denver Center
Wed 10:25:43 38.2028 -108.4669 70° East 525 972 33.000  Level Denver Center
Wed 10:26:45 38.2514 -108.2992 70° East 528 978 33.000  Level Denver Center
Wed 10:27:47 38.3081 -108.1019 70° East 530 982 33.000  Level Denver Center
Wed 10:28:48 38.3553 -107.9358 70° East 525 972 33.000  Level Denver Center
Wed 10:29:50 38.4108 -107.7400 70° East 527 975 33.000  Level Denver Center
Wed 10:30:52 38.4606 -107.5728 69° East 528 978 33.000  Level Denver Center
Wed 10:31:54 38.5422 -107.3947 60° Northeast 523 969 33.000  Level Denver Center
Wed 10:32:56 38.6094 -107.2444 60° Northeast 514 953 33.000  Level Denver Center
Wed 10:33:58 38.6822 -107.0811 60° Northeast 519 961 33.000  Level Denver Center
Wed 10:34:59 38.7536 -106.9189 61° Northeast 523 969 33.000  Level Denver Center
Wed 10:36:01 38.8281 -106.7528 60° Northeast 526 974 33.000 -484 Level Denver Center
Wed 10:37:03 38.9081 -106.5717 60° Northeast 527 975 32.000 -1.355 Descending Denver Center
Wed 10:38:05 38.9947 -106.3850 59° Northeast 544 1007 30.200 -1.645 Descending Denver Center
Wed 10:39:07 39.0650 -106.2331 59° Northeast 525 972 28.600 -1.645 Descending Denver Center
Wed 10:40:09 39.1361 -106.0714 60° Northeast 508 941 26.800 -1.694 Descending Denver Center
Wed 10:41:11 39.2033 -105.9200 60° Northeast 485 898 25.100 -1.645 Descending Denver Center
Wed 10:42:13 39.2653 -105.7797 60° Northeast 451 835 23.400 -1.645 Descending Denver Center
Wed 10:43:15 39.3211 -105.6494 61° Northeast 416 771 21.700 -1.548 Descending Denver Center
Wed 10:44:17 39.3844 -105.5072 60° Northeast 390 723 20.200 -1.403 Descending Denver Center
Wed 10:45:19 39.4397 -105.4011 56° Northeast 352 652 18.800 -1.296 Descending Denver Center
Wed 10:46:22 39.4931 -105.2972 56° Northeast 343 636 17.500 -1.200 Descending Denver Center
Wed 10:47:24 39.5456 -105.1972 56° Northeast 337 624 16.300 -1.016 Descending Denver Center
Wed 10:48:26 39.6008 -105.0914 56° Northeast 331 613 15.400 -774 Descending Denver Center
Wed 10:49:28 39.6492 -104.9983 56° Northeast 314 581 14.700 -677 Descending Denver Center
Wed 10:50:30 39.7019 -104.8975 56° Northeast 312 578 14.000 -871 Descending Denver Center
Wed 10:51:32 39.7597 -104.8422 36° Northeast 273 505 12.900 -1.161 Descending Denver Center
Wed 10:52:34 39.8333 -104.8406 North 246 455 11.600 -919 Descending Denver Center
Wed 10:53:36 39.9036 -104.8403 360° North 251 465 11.000 -629 Descending Denver Center
Wed 10:54:38 39.9703 -104.8406 360° North 241 446 10.300 -484 Descending Denver Center
Wed 10:55:40 40.0344 -104.8389 North 205 380 10.000 -145 Descending Denver Center
Wed 10:56:42 40.0869 -104.8392 360° North 188 348 10.000 -339 Level Denver Center
Wed 10:57:44 40.1442 -104.8350 North 203 377 9.300 -871 Descending Denver Center
Wed 10:58:46 40.1506 -104.7558 84° East 215 398 8.200 -629 Descending Denver Center
Wed 10:59:48 40.1036 -104.7136 145° Southeast 207 383 8.000 -194 Descending Denver Center

Login

Don't have an account? Register now (free) for customized features, flight alerts, and more!